Results: 2016 Mooloolaba ITU Triathlon World Cup | Elite Women
Mooloolaba, Australia • 12 Mar, 2016
Pos First Name Last Name YOB Country Start
Num
Time Swim T1 Bike T2 Run
1 Jodie Stimpson 1989 GBR 6 00:58:31 00:08:42 00:01:06 00:31:06 00:00:23 00:17:17
2 Emma Moffatt 1984 AUS 4 00:58:48 00:08:40 00:01:08 00:31:08 00:00:23 00:17:31
3 Kirsten Kasper 1991 USA 10 00:58:56 00:08:29 00:01:08 00:31:18 00:00:25 00:17:39
4 Sara Vilic 1992 AUT 18 00:59:08 00:08:42 00:01:06 00:31:06 00:00:27 00:17:49
5 Renee Tomlin 1988 USA 7 00:59:24 00:09:05 00:01:05 00:31:38 00:00:22 00:17:16
6 Ashleigh Gentle 1991 AUS 2 00:59:30 00:09:08 00:01:06 00:31:34 00:00:23 00:17:21
7 Miriam Casillas García 1992 ESP 27 00:59:36 00:09:10 00:01:07 00:31:34 00:00:23 00:17:24
8 Zsófia Kovács 1988 HUN 26 00:59:39 00:09:11 00:01:08 00:31:37 00:00:22 00:17:23
9 Ai Ueda 1983 JPN 3 00:59:41 00:09:15 00:01:07 00:31:30 00:00:26 00:17:25
10 Kaidi Kivioja 1993 EST 39 00:59:44 00:09:11 00:01:06 00:31:35 00:00:21 00:17:34
11 Lisa Norden 1984 SWE 19 00:59:47 00:08:39 00:01:07 00:31:07 00:00:25 00:18:31
12 Yuliya Yelistratova 1988 UKR 16 00:59:53 00:09:11 00:01:13 00:31:26 00:00:24 00:17:40
13 Yurie Matsuda 1987 JPN 21 00:59:54 00:09:13 00:01:11 00:31:29 00:00:25 00:17:39
14 Gillian Backhouse 1991 AUS 11 00:59:56 00:08:40 00:01:07 00:31:06 00:00:20 00:18:45
15 Rebecca Robisch 1988 GER 8 00:59:59 00:09:18 00:01:07 00:31:23 00:00:24 00:17:49
16 Nicole Van Der Kaay 1996 NZL 50 01:00:07 00:08:38 00:01:05 00:31:12 00:00:24 00:18:49
17 Vendula Frintova 1983 CZE 5 01:00:10 00:09:15 00:01:07 00:31:25 00:00:23 00:18:02
18 Taylor Spivey 1991 USA 32 01:00:11 00:08:35 00:01:07 00:31:14 00:00:22 00:18:55
19 Julia Hauser 1994 AUT 34 01:00:15 00:09:09 00:01:07 00:31:38 00:00:23 00:18:01
20 Felicity Sheedy-Ryan 1985 AUS 24 01:00:16 00:09:17 00:01:09 00:31:29 00:00:23 00:17:59
21 Katrien Verstuyft 1982 BEL 30 01:00:17 00:09:11 00:01:09 00:31:35 00:00:21 00:18:04
22 Ainhoa Murua 1978 ESP 15 01:00:21 00:08:56 00:01:05 00:31:48 00:00:24 00:18:09
23 Emma Jeffcoat 1994 AUS 42 01:00:25 00:08:32 00:01:09 00:31:13 00:00:25 00:19:08
24 Yuko Takahashi 1991 JPN 12 01:00:25 00:09:03 00:01:08 00:31:38 00:00:21 00:18:16
25 Arina Shulgina 1991 RUS 22 01:00:28 00:09:10 00:01:11 00:31:34 00:00:26 00:18:08
26 Rachel Klamer 1990 NED 1 01:00:36 00:09:07 00:01:09 00:31:35 00:00:23 00:18:23
27 Lindsey Jerdonek 1984 USA 14 01:00:36 00:09:10 00:01:09 00:31:36 00:00:23 00:18:21
28 Anel Radford 1978 RSA 29 01:00:36 00:08:41 00:01:08 00:32:00 00:00:26 00:18:23
29 Melanie Santos 1995 POR 36 01:00:41 00:09:11 00:01:09 00:31:32 00:00:25 00:18:26
30 Michelle Flipo 1988 FRA 38 01:00:46 00:08:43 00:01:10 00:31:54 00:00:24 00:18:37
31 Deborah Lynch 1992 NZL 43 01:00:48 00:09:11 00:01:10 00:31:28 00:00:23 00:18:38
32 Aoi Kuramoto 1988 JPN 28 01:00:52 00:09:12 00:01:08 00:31:33 00:00:23 00:18:38
33 Julie Derron 1996 SUI 51 01:01:22 00:09:19 00:01:07 00:31:24 00:00:26 00:19:09
34 Romina Palacio Balena 1984 ARG 35 01:01:34 00:09:12 00:01:08 00:31:31 00:00:25 00:19:20
35 Amanda Bohlin 1989 SWE 45 01:02:05 00:09:16 00:01:06 00:31:30 00:00:23 00:19:52
36 Tomoko Sakimoto 1983 JPN 46 01:02:23 00:08:55 00:01:08 00:31:51 00:00:23 00:20:08
37 Claire Michel 1988 BEL 25 01:03:39 00:09:13 00:01:09 00:34:18 00:00:25 00:18:35
38 Mariko Adachi 1983 JPN 31 01:04:11 00:08:44 00:01:06 00:34:51 00:00:23 00:19:08
39 Summer Cook 1991 USA 17 01:04:46 00:08:40 00:01:08 00:35:04 00:00:26 00:19:31
40 Hideko Kikuchi 1986 JPN 41 01:05:38 00:09:17 00:01:08 00:34:42 00:00:29 00:20:04
41 Mengying Zhong 1990 CHN 44 01:05:55 00:08:49 00:01:12 00:34:44 00:00:23 00:20:48
42 Kseniia Levkovska 1989 AZE 49 01:06:17 00:09:09 00:01:14 00:34:43 00:00:26 00:20:48
LAP Melinda Vernon 1985 AUS 47 LAP 00:09:37 00:01:14 00:00:00 00:00:00 00:00:00
LAP Yi Zhang 1987 CHN 48 LAP 00:09:12 00:01:14 00:00:00 00:00:00 00:00:00
LAP Kim Kilgroe 1989 PHI 52 LAP 00:10:01 00:01:19 00:00:00 00:00:00 00:00:00
LAP Rachel James 1984 PNG 53 LAP 00:11:08 00:01:16 00:00:00 00:00:00 00:00:00
DNF Lisa Perterer 1991 AUT 9 DNF 00:09:10 00:01:06 00:31:33 00:00:25 00:00:00
DNF Carolina Routier 1990 ESP 20 DNF 00:08:33 00:01:15 00:31:10 00:00:27 00:00:00
DNF Valentina Carvallo 1985 CHI 23 DNF 00:09:09 00:01:11 00:31:33 00:00:26 00:00:00
DNF Jessica Broderick 1990 USA 33 DNF 00:09:12 00:01:11 00:00:00 00:00:00 00:00:00
DNF Maria Czesnik 1977 POL 37 DNF 00:09:22 00:01:12 00:00:00 00:00:00 00:00:00
DNF Gaia Peron 1986 TUR 40 DNF 00:08:46 00:01:09 00:00:00 00:00:00 00:00:00
Program notes:

Technical Delegate: Claire Hannan/NZL
Race Referee: Jacquie Kennie/AUS
Competition Jury: Claire Hannan/NZL; Bill Walker/AUS; Miles Stewart/AUS
Water Temperature 26.6ºC; Air Temperature 31.8ºC; humidity 47%
Wetsuits not allowed
Distances: Swim 750 m (1 lap); Bike 20 km (5 laps); Run 5 km (3 laps)